Terminal Aerodrome Forecast
Issued by NWS Tulsa, OK

Home | Current Version | Previous Version | Text Only | Print | Product List | Glossary On
Versions: 1 2 3 4 5 6 7 8 9 10 11 12
000
FTUS44 KTSA 011700
TAFFSM
TAF
KFSM 011720Z 0118/0218 17010KT P6SM SCT035 SCT250
     FM020000 10005KT P6SM SCT100 SCT250
     FM020900 07005KT P6SM SCT015 SCT100
     FM021500 16008KT P6SM BKN100 PROB30 0215/0218 5SM -TSRA
      BKN050CB=

USA.gov is the U.S. government's official web portal to all federal, state and local government web resources and services.